sensor_id;sensor_type;location;lat;lon;timestamp;P1;durP1;ratioP1;P2;durP2;ratioP2
54899;SDS011;40801;41.924;25.562;2024-01-30T00:02:16;10.13;;;9.05;;
54899;SDS011;40801;41.924;25.562;2024-01-30T00:04:42;14.18;;;9.00;;
54899;SDS011;40801;41.924;25.562;2024-01-30T00:07:07;13.98;;;10.57;;
54899;SDS011;40801;41.924;25.562;2024-01-30T00:09:33;10.02;;;8.75;;
54899;SDS011;40801;41.924;25.562;2024-01-30T00:11:58;10.80;;;9.30;;
54899;SDS011;40801;41.924;25.562;2024-01-30T00:14:24;9.65;;;8.65;;
54899;SDS011;40801;41.924;25.562;2024-01-30T00:16:50;10.02;;;7.85;;
54899;SDS011;40801;41.924;25.562;2024-01-30T00:19:16;12.05;;;9.60;;
54899;SDS011;40801;41.924;25.562;2024-01-30T00:21:41;10.82;;;9.05;;
54899;SDS011;40801;41.924;25.562;2024-01-30T00:24:07;11.55;;;9.75;;
54899;SDS011;40801;41.924;25.562;2024-01-30T00:26:32;8.98;;;8.02;;
54899;SDS011;40801;41.924;25.562;2024-01-30T00:28:57;8.65;;;7.18;;
54899;SDS011;40801;41.924;25.562;2024-01-30T00:31:23;12.07;;;8.20;;
54899;SDS011;40801;41.924;25.562;2024-01-30T00:33:49;9.68;;;7.78;;
54899;SDS011;40801;41.924;25.562;2024-01-30T00:36:14;11.27;;;8.32;;
54899;SDS011;40801;41.924;25.562;2024-01-30T00:38:40;12.02;;;8.82;;
54899;SDS011;40801;41.924;25.562;2024-01-30T00:41:06;9.10;;;8.20;;
54899;SDS011;40801;41.924;25.562;2024-01-30T00:43:32;9.65;;;8.13;;
54899;SDS011;40801;41.924;25.562;2024-01-30T00:45:58;9.57;;;7.97;;
54899;SDS011;40801;41.924;25.562;2024-01-30T00:48:24;13.15;;;9.30;;
54899;SDS011;40801;41.924;25.562;2024-01-30T00:50:49;9.80;;;7.40;;
54899;SDS011;40801;41.924;25.562;2024-01-30T00:53:15;12.88;;;8.52;;
54899;SDS011;40801;41.924;25.562;2024-01-30T00:55:40;13.43;;;9.82;;
54899;SDS011;40801;41.924;25.562;2024-01-30T00:58:05;14.88;;;10.25;;
54899;SDS011;40801;41.924;25.562;2024-01-30T01:00:31;14.77;;;9.88;;
54899;SDS011;40801;41.924;25.562;2024-01-30T01:03:00;15.30;;;9.77;;
54899;SDS011;40801;41.924;25.562;2024-01-30T01:05:26;10.77;;;7.72;;
54899;SDS011;40801;41.924;25.562;2024-01-30T01:07:52;8.57;;;6.55;;
54899;SDS011;40801;41.924;25.562;2024-01-30T01:10:17;7.93;;;6.32;;
54899;SDS011;40801;41.924;25.562;2024-01-30T01:12:43;9.23;;;5.88;;
54899;SDS011;40801;41.924;25.562;2024-01-30T01:15:09;5.95;;;5.35;;
54899;SDS011;40801;41.924;25.562;2024-01-30T01:17:35;7.47;;;6.45;;
54899;SDS011;40801;41.924;25.562;2024-01-30T01:20:02;5.85;;;4.97;;
54899;SDS011;40801;41.924;25.562;2024-01-30T01:22:28;6.25;;;5.38;;
54899;SDS011;40801;41.924;25.562;2024-01-30T01:24:54;7.15;;;6.45;;
54899;SDS011;40801;41.924;25.562;2024-01-30T01:27:19;7.20;;;5.88;;
54899;SDS011;40801;41.924;25.562;2024-01-30T01:29:46;8.43;;;6.97;;
54899;SDS011;40801;41.924;25.562;2024-01-30T01:32:11;8.02;;;5.95;;
54899;SDS011;40801;41.924;25.562;2024-01-30T01:34:37;8.73;;;6.70;;
54899;SDS011;40801;41.924;25.562;2024-01-30T01:37:02;7.53;;;5.57;;
54899;SDS011;40801;41.924;25.562;2024-01-30T01:39:28;7.22;;;5.63;;
54899;SDS011;40801;41.924;25.562;2024-01-30T01:41:53;6.70;;;5.35;;
54899;SDS011;40801;41.924;25.562;2024-01-30T01:44:18;7.68;;;6.10;;
54899;SDS011;40801;41.924;25.562;2024-01-30T01:46:44;8.07;;;6.05;;
54899;SDS011;40801;41.924;25.562;2024-01-30T01:49:10;6.40;;;5.80;;
54899;SDS011;40801;41.924;25.562;2024-01-30T01:51:36;7.05;;;5.53;;
54899;SDS011;40801;41.924;25.562;2024-01-30T01:54:05;6.57;;;5.53;;
54899;SDS011;40801;41.924;25.562;2024-01-30T01:56:31;7.20;;;5.93;;
54899;SDS011;40801;41.924;25.562;2024-01-30T01:58:59;5.85;;;5.35;;
54899;SDS011;40801;41.924;25.562;2024-01-30T02:01:29;6.93;;;6.03;;
54899;SDS011;40801;41.924;25.562;2024-01-30T02:03:57;7.07;;;5.38;;
54899;SDS011;40801;41.924;25.562;2024-01-30T02:06:24;7.00;;;6.30;;
54899;SDS011;40801;41.924;25.562;2024-01-30T02:08:49;6.78;;;5.25;;
54899;SDS011;40801;41.924;25.562;2024-01-30T02:11:15;7.90;;;5.88;;
54899;SDS011;40801;41.924;25.562;2024-01-30T02:13:41;6.28;;;5.68;;
54899;SDS011;40801;41.924;25.562;2024-01-30T02:16:07;5.70;;;5.10;;
54899;SDS011;40801;41.924;25.562;2024-01-30T02:18:32;7.22;;;5.32;;
54899;SDS011;40801;41.924;25.562;2024-01-30T02:20:58;5.95;;;5.35;;
54899;SDS011;40801;41.924;25.562;2024-01-30T02:23:26;5.97;;;5.20;;
54899;SDS011;40801;41.924;25.562;2024-01-30T02:25:52;7.40;;;5.57;;
54899;SDS011;40801;41.924;25.562;2024-01-30T02:28:18;6.18;;;4.97;;
54899;SDS011;40801;41.924;25.562;2024-01-30T02:30:44;5.70;;;5.10;;
54899;SDS011;40801;41.924;25.562;2024-01-30T02:33:11;7.30;;;6.20;;
54899;SDS011;40801;41.924;25.562;2024-01-30T02:35:36;7.72;;;5.65;;
54899;SDS011;40801;41.924;25.562;2024-01-30T02:38:01;7.20;;;5.53;;
54899;SDS011;40801;41.924;25.562;2024-01-30T02:40:27;7.35;;;5.22;;
54899;SDS011;40801;41.924;25.562;2024-01-30T02:42:53;8.93;;;5.95;;
54899;SDS011;40801;41.924;25.562;2024-01-30T02:45:18;6.40;;;5.47;;
54899;SDS011;40801;41.924;25.562;2024-01-30T02:47:43;6.07;;;5.47;;
54899;SDS011;40801;41.924;25.562;2024-01-30T02:50:09;5.78;;;5.07;;
54899;SDS011;40801;41.924;25.562;2024-01-30T02:52:35;5.50;;;5.00;;
54899;SDS011;40801;41.924;25.562;2024-01-30T02:55:00;6.63;;;5.45;;
54899;SDS011;40801;41.924;25.562;2024-01-30T02:57:27;6.40;;;5.50;;
54899;SDS011;40801;41.924;25.562;2024-01-30T02:59:52;7.25;;;5.50;;
54899;SDS011;40801;41.924;25.562;2024-01-30T03:02:18;6.93;;;5.45;;
54899;SDS011;40801;41.924;25.562;2024-01-30T03:04:43;7.63;;;5.93;;
54899;SDS011;40801;41.924;25.562;2024-01-30T03:07:09;7.30;;;6.10;;
54899;SDS011;40801;41.924;25.562;2024-01-30T03:09:35;8.63;;;6.57;;
54899;SDS011;40801;41.924;25.562;2024-01-30T03:12:01;7.10;;;6.40;;
54899;SDS011;40801;41.924;25.562;2024-01-30T03:14:27;7.68;;;6.85;;
54899;SDS011;40801;41.924;25.562;2024-01-30T03:16:54;7.65;;;6.95;;
54899;SDS011;40801;41.924;25.562;2024-01-30T03:19:19;9.88;;;6.00;;
54899;SDS011;40801;41.924;25.562;2024-01-30T03:21:44;9.32;;;6.88;;
54899;SDS011;40801;41.924;25.562;2024-01-30T03:24:10;7.20;;;5.82;;
54899;SDS011;40801;41.924;25.562;2024-01-30T03:26:35;6.35;;;5.65;;
54899;SDS011;40801;41.924;25.562;2024-01-30T03:29:01;6.28;;;4.80;;
54899;SDS011;40801;41.924;25.562;2024-01-30T03:31:26;9.38;;;6.30;;
54899;SDS011;40801;41.924;25.562;2024-01-30T03:33:52;6.75;;;5.50;;
54899;SDS011;40801;41.924;25.562;2024-01-30T03:36:17;7.28;;;5.43;;
54899;SDS011;40801;41.924;25.562;2024-01-30T03:38:43;8.07;;;5.30;;
54899;SDS011;40801;41.924;25.562;2024-01-30T03:41:08;6.88;;;5.47;;
54899;SDS011;40801;41.924;25.562;2024-01-30T03:43:34;5.93;;;5.28;;
54899;SDS011;40801;41.924;25.562;2024-01-30T03:46:00;5.68;;;5.00;;
54899;SDS011;40801;41.924;25.562;2024-01-30T03:48:26;6.15;;;5.53;;
54899;SDS011;40801;41.924;25.562;2024-01-30T03:50:52;6.35;;;5.38;;
54899;SDS011;40801;41.924;25.562;2024-01-30T03:53:17;7.43;;;6.13;;
54899;SDS011;40801;41.924;25.562;2024-01-30T03:55:43;8.25;;;6.30;;
54899;SDS011;40801;41.924;25.562;2024-01-30T03:58:08;7.85;;;6.30;;
54899;SDS011;40801;41.924;25.562;2024-01-30T04:00:34;7.30;;;5.70;;
54899;SDS011;40801;41.924;25.562;2024-01-30T04:03:00;7.85;;;5.15;;
54899;SDS011;40801;41.924;25.562;2024-01-30T04:05:25;7.18;;;5.88;;
54899;SDS011;40801;41.924;25.562;2024-01-30T04:07:51;6.10;;;5.00;;
54899;SDS011;40801;41.924;25.562;2024-01-30T04:10:16;10.20;;;6.50;;
54899;SDS011;40801;41.924;25.562;2024-01-30T04:12:41;7.35;;;5.45;;
54899;SDS011;40801;41.924;25.562;2024-01-30T04:15:07;7.22;;;5.78;;
54899;SDS011;40801;41.924;25.562;2024-01-30T04:17:33;5.97;;;5.38;;
54899;SDS011;40801;41.924;25.562;2024-01-30T04:19:58;6.90;;;5.93;;
54899;SDS011;40801;41.924;25.562;2024-01-30T04:22:24;8.52;;;5.28;;
54899;SDS011;40801;41.924;25.562;2024-01-30T04:24:49;6.57;;;5.40;;
54899;SDS011;40801;41.924;25.562;2024-01-30T04:27:15;8.55;;;5.43;;
54899;SDS011;40801;41.924;25.562;2024-01-30T04:29:40;7.07;;;5.75;;
54899;SDS011;40801;41.924;25.562;2024-01-30T04:32:06;6.60;;;5.90;;
54899;SDS011;40801;41.924;25.562;2024-01-30T04:34:31;7.38;;;5.20;;
54899;SDS011;40801;41.924;25.562;2024-01-30T04:36:57;7.53;;;5.93;;
54899;SDS011;40801;41.924;25.562;2024-01-30T04:39:22;5.75;;;4.93;;
54899;SDS011;40801;41.924;25.562;2024-01-30T04:41:48;6.85;;;5.63;;
54899;SDS011;40801;41.924;25.562;2024-01-30T04:44:13;6.97;;;6.13;;
54899;SDS011;40801;41.924;25.562;2024-01-30T04:46:39;8.13;;;6.70;;
54899;SDS011;40801;41.924;25.562;2024-01-30T04:49:04;6.88;;;6.07;;
54899;SDS011;40801;41.924;25.562;2024-01-30T04:51:32;7.78;;;5.45;;
54899;SDS011;40801;41.924;25.562;2024-01-30T04:53:58;9.85;;;6.40;;
54899;SDS011;40801;41.924;25.562;2024-01-30T04:56:24;8.23;;;6.72;;
54899;SDS011;40801;41.924;25.562;2024-01-30T04:58:49;6.45;;;5.72;;
54899;SDS011;40801;41.924;25.562;2024-01-30T05:01:17;8.45;;;7.43;;
54899;SDS011;40801;41.924;25.562;2024-01-30T05:03:43;8.68;;;6.95;;
54899;SDS011;40801;41.924;25.562;2024-01-30T05:06:09;7.07;;;6.38;;
54899;SDS011;40801;41.924;25.562;2024-01-30T05:08:34;10.60;;;6.93;;
54899;SDS011;40801;41.924;25.562;2024-01-30T05:11:03;10.40;;;7.47;;
54899;SDS011;40801;41.924;25.562;2024-01-30T05:13:30;8.65;;;6.93;;
54899;SDS011;40801;41.924;25.562;2024-01-30T05:15:56;10.57;;;7.03;;
54899;SDS011;40801;41.924;25.562;2024-01-30T05:18:21;9.85;;;7.07;;
54899;SDS011;40801;41.924;25.562;2024-01-30T05:20:47;9.88;;;6.47;;
54899;SDS011;40801;41.924;25.562;2024-01-30T05:23:12;8.85;;;7.55;;
54899;SDS011;40801;41.924;25.562;2024-01-30T05:25:37;8.48;;;6.82;;
54899;SDS011;40801;41.924;25.562;2024-01-30T05:28:03;8.73;;;6.50;;
54899;SDS011;40801;41.924;25.562;2024-01-30T05:30:28;8.02;;;6.95;;
54899;SDS011;40801;41.924;25.562;2024-01-30T05:32:54;9.20;;;6.88;;
54899;SDS011;40801;41.924;25.562;2024-01-30T05:35:19;11.40;;;7.63;;
54899;SDS011;40801;41.924;25.562;2024-01-30T05:37:47;8.82;;;7.15;;
54899;SDS011;40801;41.924;25.562;2024-01-30T05:40:13;10.95;;;8.45;;
54899;SDS011;40801;41.924;25.562;2024-01-30T05:42:39;10.27;;;8.60;;
54899;SDS011;40801;41.924;25.562;2024-01-30T05:45:04;8.55;;;7.68;;
54899;SDS011;40801;41.924;25.562;2024-01-30T05:47:30;11.18;;;8.68;;
54899;SDS011;40801;41.924;25.562;2024-01-30T05:49:56;14.88;;;12.48;;
54899;SDS011;40801;41.924;25.562;2024-01-30T05:52:21;9.63;;;8.50;;
54899;SDS011;40801;41.924;25.562;2024-01-30T05:54:47;11.18;;;9.70;;
54899;SDS011;40801;41.924;25.562;2024-01-30T05:57:12;13.73;;;9.85;;
54899;SDS011;40801;41.924;25.562;2024-01-30T05:59:37;10.77;;;8.95;;
54899;SDS011;40801;41.924;25.562;2024-01-30T06:02:03;10.82;;;8.00;;
54899;SDS011;40801;41.924;25.562;2024-01-30T06:04:28;10.10;;;7.75;;
54899;SDS011;40801;41.924;25.562;2024-01-30T06:06:54;15.85;;;11.10;;
54899;SDS011;40801;41.924;25.562;2024-01-30T06:09:19;15.27;;;11.52;;
54899;SDS011;40801;41.924;25.562;2024-01-30T06:11:45;12.77;;;10.20;;
54899;SDS011;40801;41.924;25.562;2024-01-30T06:14:10;12.98;;;8.93;;
54899;SDS011;40801;41.924;25.562;2024-01-30T06:16:36;11.80;;;8.18;;
54899;SDS011;40801;41.924;25.562;2024-01-30T06:19:01;17.10;;;13.25;;
54899;SDS011;40801;41.924;25.562;2024-01-30T06:21:26;11.10;;;9.55;;
54899;SDS011;40801;41.924;25.562;2024-01-30T06:23:52;8.43;;;6.85;;
54899;SDS011;40801;41.924;25.562;2024-01-30T06:26:17;38.63;;;14.10;;
54899;SDS011;40801;41.924;25.562;2024-01-30T06:28:43;14.70;;;12.35;;
54899;SDS011;40801;41.924;25.562;2024-01-30T06:31:09;17.45;;;15.65;;
54899;SDS011;40801;41.924;25.562;2024-01-30T06:33:35;12.77;;;9.60;;
54899;SDS011;40801;41.924;25.562;2024-01-30T06:36:00;10.65;;;8.63;;
54899;SDS011;40801;41.924;25.562;2024-01-30T06:38:26;13.20;;;9.63;;
54899;SDS011;40801;41.924;25.562;2024-01-30T06:40:51;44.97;;;14.65;;
54899;SDS011;40801;41.924;25.562;2024-01-30T06:43:16;24.35;;;20.65;;
54899;SDS011;40801;41.924;25.562;2024-01-30T06:45:42;11.38;;;10.18;;
54899;SDS011;40801;41.924;25.562;2024-01-30T06:48:07;10.43;;;8.30;;
54899;SDS011;40801;41.924;25.562;2024-01-30T06:50:33;10.82;;;8.20;;
54899;SDS011;40801;41.924;25.562;2024-01-30T06:52:59;24.08;;;13.93;;
54899;SDS011;40801;41.924;25.562;2024-01-30T06:55:24;21.20;;;13.63;;
54899;SDS011;40801;41.924;25.562;2024-01-30T06:57:49;12.73;;;10.02;;
54899;SDS011;40801;41.924;25.562;2024-01-30T07:00:15;23.48;;;13.05;;
54899;SDS011;40801;41.924;25.562;2024-01-30T07:02:41;16.27;;;9.73;;
54899;SDS011;40801;41.924;25.562;2024-01-30T07:05:06;15.95;;;9.38;;
54899;SDS011;40801;41.924;25.562;2024-01-30T07:07:32;10.85;;;8.88;;
54899;SDS011;40801;41.924;25.562;2024-01-30T07:09:58;18.27;;;10.05;;
54899;SDS011;40801;41.924;25.562;2024-01-30T07:12:23;13.57;;;8.95;;
54899;SDS011;40801;41.924;25.562;2024-01-30T07:14:50;9.95;;;8.93;;
54899;SDS011;40801;41.924;25.562;2024-01-30T07:17:16;9.57;;;8.23;;
54899;SDS011;40801;41.924;25.562;2024-01-30T07:19:42;15.65;;;11.23;;
54899;SDS011;40801;41.924;25.562;2024-01-30T07:22:07;12.60;;;10.35;;
54899;SDS011;40801;41.924;25.562;2024-01-30T07:24:33;10.02;;;9.02;;
54899;SDS011;40801;41.924;25.562;2024-01-30T07:26:58;17.75;;;12.68;;
54899;SDS011;40801;41.924;25.562;2024-01-30T07:29:24;12.32;;;10.07;;
54899;SDS011;40801;41.924;25.562;2024-01-30T07:31:49;13.50;;;9.25;;
54899;SDS011;40801;41.924;25.562;2024-01-30T07:34:15;13.13;;;8.20;;
54899;SDS011;40801;41.924;25.562;2024-01-30T07:36:40;10.27;;;8.95;;
54899;SDS011;40801;41.924;25.562;2024-01-30T07:39:06;18.80;;;12.65;;
54899;SDS011;40801;41.924;25.562;2024-01-30T07:41:31;12.52;;;9.93;;
54899;SDS011;40801;41.924;25.562;2024-01-30T07:43:57;17.00;;;13.85;;
54899;SDS011;40801;41.924;25.562;2024-01-30T07:46:22;10.32;;;9.23;;
54899;SDS011;40801;41.924;25.562;2024-01-30T07:48:47;13.05;;;10.77;;
54899;SDS011;40801;41.924;25.562;2024-01-30T07:51:13;19.27;;;14.77;;
54899;SDS011;40801;41.924;25.562;2024-01-30T07:53:38;17.45;;;12.20;;
54899;SDS011;40801;41.924;25.562;2024-01-30T07:56:05;14.23;;;11.55;;
54899;SDS011;40801;41.924;25.562;2024-01-30T07:58:30;15.57;;;12.05;;
54899;SDS011;40801;41.924;25.562;2024-01-30T08:00:56;16.55;;;12.70;;
54899;SDS011;40801;41.924;25.562;2024-01-30T08:03:23;24.42;;;17.15;;
54899;SDS011;40801;41.924;25.562;2024-01-30T08:05:49;16.67;;;12.45;;
54899;SDS011;40801;41.924;25.562;2024-01-30T08:08:15;14.95;;;10.40;;
54899;SDS011;40801;41.924;25.562;2024-01-30T08:10:40;16.00;;;12.75;;
54899;SDS011;40801;41.924;25.562;2024-01-30T08:13:05;14.50;;;10.98;;
54899;SDS011;40801;41.924;25.562;2024-01-30T08:15:31;16.10;;;12.43;;
54899;SDS011;40801;41.924;25.562;2024-01-30T08:17:57;14.73;;;12.90;;
54899;SDS011;40801;41.924;25.562;2024-01-30T08:20:24;16.80;;;11.45;;
54899;SDS011;40801;41.924;25.562;2024-01-30T08:22:50;16.95;;;13.20;;
54899;SDS011;40801;41.924;25.562;2024-01-30T08:25:15;10.98;;;9.88;;
54899;SDS011;40801;41.924;25.562;2024-01-30T08:27:41;13.85;;;11.48;;
54899;SDS011;40801;41.924;25.562;2024-01-30T08:30:06;14.80;;;10.68;;
54899;SDS011;40801;41.924;25.562;2024-01-30T08:32:32;15.45;;;11.50;;
54899;SDS011;40801;41.924;25.562;2024-01-30T08:34:58;22.27;;;15.32;;
54899;SDS011;40801;41.924;25.562;2024-01-30T08:37:23;17.05;;;13.60;;
54899;SDS011;40801;41.924;25.562;2024-01-30T08:39:49;16.38;;;13.63;;
54899;SDS011;40801;41.924;25.562;2024-01-30T08:42:14;19.00;;;12.13;;
54899;SDS011;40801;41.924;25.562;2024-01-30T08:44:40;14.60;;;11.68;;
54899;SDS011;40801;41.924;25.562;2024-01-30T08:47:06;15.98;;;10.98;;
54899;SDS011;40801;41.924;25.562;2024-01-30T08:49:31;17.27;;;11.50;;
54899;SDS011;40801;41.924;25.562;2024-01-30T08:51:57;20.55;;;14.60;;
54899;SDS011;40801;41.924;25.562;2024-01-30T08:54:23;16.40;;;12.30;;
54899;SDS011;40801;41.924;25.562;2024-01-30T08:56:48;13.02;;;10.73;;
54899;SDS011;40801;41.924;25.562;2024-01-30T08:59:14;13.38;;;11.15;;
54899;SDS011;40801;41.924;25.562;2024-01-30T09:01:40;15.50;;;11.88;;
54899;SDS011;40801;41.924;25.562;2024-01-30T09:04:05;14.65;;;11.88;;
54899;SDS011;40801;41.924;25.562;2024-01-30T09:06:30;14.98;;;11.95;;
54899;SDS011;40801;41.924;25.562;2024-01-30T09:08:56;11.82;;;9.75;;
54899;SDS011;40801;41.924;25.562;2024-01-30T09:11:23;15.45;;;10.80;;
54899;SDS011;40801;41.924;25.562;2024-01-30T09:13:48;20.80;;;17.67;;
54899;SDS011;40801;41.924;25.562;2024-01-30T09:16:14;20.23;;;14.20;;
54899;SDS011;40801;41.924;25.562;2024-01-30T09:18:41;18.08;;;12.77;;
54899;SDS011;40801;41.924;25.562;2024-01-30T09:21:06;14.23;;;12.73;;
54899;SDS011;40801;41.924;25.562;2024-01-30T09:23:32;13.45;;;11.05;;
54899;SDS011;40801;41.924;25.562;2024-01-30T09:25:58;17.73;;;13.90;;
54899;SDS011;40801;41.924;25.562;2024-01-30T09:28:24;12.77;;;10.27;;
54899;SDS011;40801;41.924;25.562;2024-01-30T09:30:49;13.15;;;10.48;;
54899;SDS011;40801;41.924;25.562;2024-01-30T09:33:14;15.13;;;10.32;;
54899;SDS011;40801;41.924;25.562;2024-01-30T09:35:40;10.65;;;9.20;;
54899;SDS011;40801;41.924;25.562;2024-01-30T09:38:05;11.18;;;8.23;;
54899;SDS011;40801;41.924;25.562;2024-01-30T09:40:31;15.38;;;10.13;;
54899;SDS011;40801;41.924;25.562;2024-01-30T09:42:56;12.25;;;10.45;;
54899;SDS011;40801;41.924;25.562;2024-01-30T09:45:25;11.88;;;10.57;;
54899;SDS011;40801;41.924;25.562;2024-01-30T09:47:51;20.13;;;12.65;;
54899;SDS011;40801;41.924;25.562;2024-01-30T09:50:17;13.07;;;10.02;;
54899;SDS011;40801;41.924;25.562;2024-01-30T09:52:47;24.60;;;12.82;;
54899;SDS011;40801;41.924;25.562;2024-01-30T09:55:13;24.38;;;11.00;;
54899;SDS011;40801;41.924;25.562;2024-01-30T09:57:38;21.02;;;14.32;;
54899;SDS011;40801;41.924;25.562;2024-01-30T10:00:05;19.35;;;14.75;;
54899;SDS011;40801;41.924;25.562;2024-01-30T10:02:37;19.95;;;13.73;;
54899;SDS011;40801;41.924;25.562;2024-01-30T10:05:02;14.18;;;10.13;;
54899;SDS011;40801;41.924;25.562;2024-01-30T10:07:28;16.08;;;12.85;;
54899;SDS011;40801;41.924;25.562;2024-01-30T10:09:54;17.10;;;12.27;;
54899;SDS011;40801;41.924;25.562;2024-01-30T10:12:22;11.20;;;9.20;;
54899;SDS011;40801;41.924;25.562;2024-01-30T10:14:48;11.35;;;7.78;;
54899;SDS011;40801;41.924;25.562;2024-01-30T10:17:14;10.32;;;7.53;;
54899;SDS011;40801;41.924;25.562;2024-01-30T10:19:39;10.05;;;8.90;;
54899;SDS011;40801;41.924;25.562;2024-01-30T10:22:06;9.50;;;7.45;;
54899;SDS011;40801;41.924;25.562;2024-01-30T10:24:35;31.00;;;22.23;;
54899;SDS011;40801;41.924;25.562;2024-01-30T10:27:01;14.30;;;9.07;;
54899;SDS011;40801;41.924;25.562;2024-01-30T10:29:26;10.27;;;7.07;;
54899;SDS011;40801;41.924;25.562;2024-01-30T10:32:02;12.02;;;7.85;;
54899;SDS011;40801;41.924;25.562;2024-01-30T10:34:29;14.23;;;12.27;;
54899;SDS011;40801;41.924;25.562;2024-01-30T10:37:13;9.40;;;8.48;;
54899;SDS011;40801;41.924;25.562;2024-01-30T10:39:41;14.30;;;6.00;;
54899;SDS011;40801;41.924;25.562;2024-01-30T10:42:11;11.38;;;8.88;;
54899;SDS011;40801;41.924;25.562;2024-01-30T10:47:46;9.82;;;8.82;;
54899;SDS011;40801;41.924;25.562;2024-01-30T10:50:18;7.93;;;6.50;;
54899;SDS011;40801;41.924;25.562;2024-01-30T10:52:44;10.38;;;9.18;;
54899;SDS011;40801;41.924;25.562;2024-01-30T10:55:10;9.52;;;7.07;;
54899;SDS011;40801;41.924;25.562;2024-01-30T10:57:36;9.75;;;7.85;;
54899;SDS011;40801;41.924;25.562;2024-01-30T11:00:04;10.40;;;9.30;;
54899;SDS011;40801;41.924;25.562;2024-01-30T11:02:35;13.55;;;11.57;;
54899;SDS011;40801;41.924;25.562;2024-01-30T11:05:04;12.48;;;8.85;;
54899;SDS011;40801;41.924;25.562;2024-01-30T11:07:30;11.75;;;9.07;;
54899;SDS011;40801;41.924;25.562;2024-01-30T11:12:24;21.00;;;13.75;;
54899;SDS011;40801;41.924;25.562;2024-01-30T11:15:00;10.23;;;9.05;;
54899;SDS011;40801;41.924;25.562;2024-01-30T11:20:20;11.38;;;9.20;;
54899;SDS011;40801;41.924;25.562;2024-01-30T11:22:47;10.55;;;8.23;;
54899;SDS011;40801;41.924;25.562;2024-01-30T11:25:16;11.32;;;8.60;;
54899;SDS011;40801;41.924;25.562;2024-01-30T11:27:43;14.00;;;10.45;;
54899;SDS011;40801;41.924;25.562;2024-01-30T11:30:09;14.40;;;10.05;;
54899;SDS011;40801;41.924;25.562;2024-01-30T11:32:35;11.13;;;9.27;;
54899;SDS011;40801;41.924;25.562;2024-01-30T11:35:03;7.50;;;5.68;;
54899;SDS011;40801;41.924;25.562;2024-01-30T11:39:56;10.52;;;6.95;;
54899;SDS011;40801;41.924;25.562;2024-01-30T11:42:23;11.70;;;7.18;;
54899;SDS011;40801;41.924;25.562;2024-01-30T11:44:50;12.23;;;8.60;;
54899;SDS011;40801;41.924;25.562;2024-01-30T11:47:16;10.10;;;8.52;;
54899;SDS011;40801;41.924;25.562;2024-01-30T11:49:41;11.38;;;7.05;;
54899;SDS011;40801;41.924;25.562;2024-01-30T11:52:08;32.20;;;24.95;;
54899;SDS011;40801;41.924;25.562;2024-01-30T11:54:34;57.33;;;19.55;;
54899;SDS011;40801;41.924;25.562;2024-01-30T11:57:00;9.70;;;8.57;;
54899;SDS011;40801;41.924;25.562;2024-01-30T11:59:25;8.43;;;7.20;;
54899;SDS011;40801;41.924;25.562;2024-01-30T12:01:51;11.07;;;8.30;;
54899;SDS011;40801;41.924;25.562;2024-01-30T12:04:17;19.80;;;12.27;;
54899;SDS011;40801;41.924;25.562;2024-01-30T12:06:43;11.02;;;8.23;;
54899;SDS011;40801;41.924;25.562;2024-01-30T12:09:09;14.20;;;10.93;;
54899;SDS011;40801;41.924;25.562;2024-01-30T12:11:43;14.13;;;11.02;;
54899;SDS011;40801;41.924;25.562;2024-01-30T12:14:12;10.68;;;8.43;;
54899;SDS011;40801;41.924;25.562;2024-01-30T12:16:38;9.23;;;7.35;;
54899;SDS011;40801;41.924;25.562;2024-01-30T12:19:04;17.33;;;14.93;;
54899;SDS011;40801;41.924;25.562;2024-01-30T12:21:29;8.23;;;7.43;;
54899;SDS011;40801;41.924;25.562;2024-01-30T12:23:58;12.10;;;8.75;;
54899;SDS011;40801;41.924;25.562;2024-01-30T12:26:25;13.00;;;9.35;;
54899;SDS011;40801;41.924;25.562;2024-01-30T12:28:53;10.13;;;7.57;;
54899;SDS011;40801;41.924;25.562;2024-01-30T12:31:27;9.23;;;7.85;;
54899;SDS011;40801;41.924;25.562;2024-01-30T12:33:53;6.70;;;6.00;;
54899;SDS011;40801;41.924;25.562;2024-01-30T12:36:19;7.45;;;6.68;;
54899;SDS011;40801;41.924;25.562;2024-01-30T12:38:45;7.82;;;7.05;;
54899;SDS011;40801;41.924;25.562;2024-01-30T12:41:11;6.50;;;5.78;;
54899;SDS011;40801;41.924;25.562;2024-01-30T12:43:36;7.10;;;6.50;;
54899;SDS011;40801;41.924;25.562;2024-01-30T12:46:02;7.20;;;6.47;;
54899;SDS011;40801;41.924;25.562;2024-01-30T12:48:28;9.55;;;7.93;;
54899;SDS011;40801;41.924;25.562;2024-01-30T12:50:54;7.18;;;5.82;;
54899;SDS011;40801;41.924;25.562;2024-01-30T12:53:21;9.82;;;7.18;;
54899;SDS011;40801;41.924;25.562;2024-01-30T12:55:46;9.25;;;7.72;;
54899;SDS011;40801;41.924;25.562;2024-01-30T12:58:12;8.80;;;6.10;;
54899;SDS011;40801;41.924;25.562;2024-01-30T13:00:37;8.05;;;6.90;;
54899;SDS011;40801;41.924;25.562;2024-01-30T13:03:03;8.25;;;6.40;;
54899;SDS011;40801;41.924;25.562;2024-01-30T13:05:28;7.20;;;6.47;;
54899;SDS011;40801;41.924;25.562;2024-01-30T13:07:54;8.77;;;7.13;;
54899;SDS011;40801;41.924;25.562;2024-01-30T13:10:21;8.45;;;7.28;;
54899;SDS011;40801;41.924;25.562;2024-01-30T13:12:47;20.70;;;8.85;;
54899;SDS011;40801;41.924;25.562;2024-01-30T13:15:12;8.55;;;5.90;;
54899;SDS011;40801;41.924;25.562;2024-01-30T13:17:38;10.15;;;7.50;;
54899;SDS011;40801;41.924;25.562;2024-01-30T13:20:03;15.40;;;7.95;;
54899;SDS011;40801;41.924;25.562;2024-01-30T13:22:29;8.18;;;6.68;;
54899;SDS011;40801;41.924;25.562;2024-01-30T13:24:55;8.45;;;6.25;;
54899;SDS011;40801;41.924;25.562;2024-01-30T13:27:20;10.77;;;6.70;;
54899;SDS011;40801;41.924;25.562;2024-01-30T13:29:46;8.10;;;7.20;;
54899;SDS011;40801;41.924;25.562;2024-01-30T13:32:11;12.38;;;11.27;;
54899;SDS011;40801;41.924;25.562;2024-01-30T13:34:37;9.68;;;6.95;;
54899;SDS011;40801;41.924;25.562;2024-01-30T13:37:02;17.52;;;10.93;;
54899;SDS011;40801;41.924;25.562;2024-01-30T13:39:27;8.07;;;7.05;;
54899;SDS011;40801;41.924;25.562;2024-01-30T13:41:54;8.40;;;7.53;;
54899;SDS011;40801;41.924;25.562;2024-01-30T13:44:19;11.05;;;6.80;;
54899;SDS011;40801;41.924;25.562;2024-01-30T13:46:46;8.30;;;7.47;;
54899;SDS011;40801;41.924;25.562;2024-01-30T13:49:11;7.70;;;5.85;;
54899;SDS011;40801;41.924;25.562;2024-01-30T13:51:37;7.85;;;7.05;;
54899;SDS011;40801;41.924;25.562;2024-01-30T13:54:02;9.43;;;7.53;;
54899;SDS011;40801;41.924;25.562;2024-01-30T13:56:28;8.73;;;7.15;;
54899;SDS011;40801;41.924;25.562;2024-01-30T13:58:55;9.48;;;7.88;;
54899;SDS011;40801;41.924;25.562;2024-01-30T14:01:21;7.45;;;6.60;;
54899;SDS011;40801;41.924;25.562;2024-01-30T14:03:47;8.68;;;6.28;;
54899;SDS011;40801;41.924;25.562;2024-01-30T14:06:13;13.30;;;9.75;;
54899;SDS011;40801;41.924;25.562;2024-01-30T14:08:39;12.88;;;10.30;;
54899;SDS011;40801;41.924;25.562;2024-01-30T14:11:04;11.25;;;7.95;;
54899;SDS011;40801;41.924;25.562;2024-01-30T14:13:30;25.45;;;18.95;;
54899;SDS011;40801;41.924;25.562;2024-01-30T14:15:57;11.50;;;8.77;;
54899;SDS011;40801;41.924;25.562;2024-01-30T14:18:22;12.65;;;9.23;;
54899;SDS011;40801;41.924;25.562;2024-01-30T14:20:48;11.18;;;8.70;;
54899;SDS011;40801;41.924;25.562;2024-01-30T14:23:13;9.98;;;8.48;;
54899;SDS011;40801;41.924;25.562;2024-01-30T14:25:39;11.05;;;7.38;;
54899;SDS011;40801;41.924;25.562;2024-01-30T14:28:04;13.32;;;10.23;;